createdAt,value
2023-04-01T00:00:54.224Z,99.90
2023-04-01T00:03:43.011Z,99.90
2023-04-01T00:06:31.688Z,99.90
2023-04-01T00:09:20.601Z,99.90
2023-04-01T00:12:09.006Z,99.90
2023-04-01T00:14:57.701Z,99.90
2023-04-01T00:17:47.506Z,99.90
2023-04-01T00:20:36.226Z,99.90
2023-04-01T00:23:24.660Z,99.90
2023-04-01T00:26:15.228Z,99.90
2023-04-01T00:29:03.771Z,99.90
2023-04-01T00:31:52.326Z,99.90
2023-04-01T00:34:42.687Z,99.90
2023-04-01T00:37:31.320Z,99.90
2023-04-01T00:40:27.784Z,99.90
2023-04-01T00:43:19.329Z,99.90
2023-04-01T00:46:07.741Z,99.90
2023-04-01T00:48:58.239Z,99.90
2023-04-01T00:51:52.283Z,99.90
2023-04-01T00:54:43.161Z,99.90
2023-04-01T00:57:37.388Z,99.90
2023-04-01T01:00:27.329Z,99.90
2023-04-01T01:03:15.874Z,99.90
2023-04-01T01:06:12.946Z,99.90
2023-04-01T01:09:15.050Z,99.90
2023-04-01T01:12:10.149Z,99.90
2023-04-01T01:15:08.238Z,99.90
2023-04-01T01:18:03.640Z,99.90
2023-04-01T01:21:18.648Z,99.90
2023-04-01T01:24:23.139Z,99.90
2023-04-01T01:27:13.797Z,99.90
2023-04-01T01:30:27.132Z,99.90
2023-04-01T01:33:37.007Z,99.90
2023-04-01T01:36:31.076Z,99.90
2023-04-01T01:39:20.527Z,99.90
2023-04-01T01:42:13.207Z,99.90
2023-04-01T01:45:04.084Z,99.90
2023-04-01T01:47:53.737Z,99.90
2023-04-01T01:50:43.442Z,99.90
2023-04-01T01:53:33.312Z,99.90
2023-04-01T01:56:25.541Z,99.90
2023-04-01T01:59:15.655Z,99.90
2023-04-01T02:02:08.946Z,99.90
2023-04-01T02:04:57.475Z,99.90
2023-04-01T02:07:50.503Z,99.90
2023-04-01T02:10:44.127Z,99.90
2023-04-01T02:13:40.102Z,99.90
2023-04-01T02:16:31.701Z,99.90
2023-04-01T02:19:23.638Z,99.90
2023-04-01T02:22:15.687Z,99.90
2023-04-01T02:25:10.332Z,99.90
2023-04-01T02:28:02.008Z,99.90
2023-04-01T02:30:51.934Z,99.90
2023-04-01T02:33:41.946Z,99.90
2023-04-01T02:36:30.959Z,99.90
2023-04-01T02:39:20.092Z,99.90
2023-04-01T02:42:08.610Z,99.90
2023-04-01T02:44:58.429Z,99.90
2023-04-01T02:47:46.950Z,99.90
2023-04-01T02:50:35.476Z,99.90
2023-04-01T02:56:12.724Z,99.90
2023-04-01T02:59:01.157Z,99.90
2023-04-01T03:18:45.951Z,99.90
2023-04-01T03:21:34.441Z,99.90
2023-04-01T03:24:23.011Z,99.90
2023-04-01T03:27:11.489Z,99.90
2023-04-01T03:29:59.962Z,99.90
2023-04-01T03:32:49.336Z,99.90
2023-04-01T03:35:39.155Z,99.90
2023-04-01T03:38:27.618Z,99.90
2023-04-01T03:41:16.651Z,99.90
2023-04-01T03:44:05.262Z,99.90
2023-04-01T03:46:53.744Z,99.90
2023-04-01T03:49:42.330Z,99.90
2023-04-01T03:52:32.180Z,99.90
2023-04-01T03:55:21.298Z,99.90
2023-04-01T03:58:10.048Z,99.90
2023-04-01T04:00:58.578Z,99.90
2023-04-01T04:03:47.402Z,99.90
2023-04-01T04:06:36.001Z,99.90
2023-04-01T04:09:26.131Z,99.90
2023-04-01T04:12:14.564Z,99.90
2023-04-01T04:15:03.061Z,99.90
2023-04-01T04:17:51.688Z,99.90
2023-04-01T04:20:46.626Z,99.90
2023-04-01T04:23:35.765Z,99.90
2023-04-01T04:26:25.616Z,99.90
2023-04-01T04:29:14.071Z,99.90
2023-04-01T04:32:02.481Z,99.90
2023-04-01T04:34:51.018Z,99.90
2023-04-01T04:37:39.435Z,99.90
2023-04-01T04:40:27.912Z,99.90
2023-04-01T04:43:19.396Z,99.90
2023-04-01T04:46:08.803Z,99.90
2023-04-01T04:48:57.480Z,99.90
2023-04-01T04:51:46.107Z,99.90
2023-04-01T04:54:34.573Z,99.90
2023-04-01T04:57:23.062Z,99.90
2023-04-01T05:00:13.875Z,99.90
2023-04-01T05:03:02.655Z,99.90
2023-04-01T05:05:52.388Z,99.90
2023-04-01T05:08:41.411Z,99.90
2023-04-01T05:11:29.928Z,99.90
2023-04-01T05:14:18.508Z,99.90
2023-04-01T05:17:11.033Z,99.90
2023-04-01T05:19:59.568Z,99.90
2023-04-01T05:22:47.984Z,99.90
2023-04-01T05:25:39.450Z,99.90
2023-04-01T05:28:27.899Z,99.90
2023-04-01T05:31:16.638Z,99.90
2023-04-01T05:34:06.545Z,99.90
2023-04-01T05:36:54.977Z,99.90
2023-04-01T05:39:43.561Z,99.90
2023-04-01T05:42:32.002Z,99.90
2023-04-01T05:45:20.426Z,99.90
2023-04-01T05:48:08.900Z,99.90
2023-04-01T05:50:58.817Z,99.90
2023-04-01T05:53:47.420Z,99.90
2023-04-01T05:56:35.863Z,99.90
2023-04-01T05:59:24.333Z,99.90
2023-04-01T06:02:12.932Z,99.90
2023-04-01T06:05:13.265Z,99.90
2023-04-01T06:08:11.755Z,99.90
2023-04-01T06:11:10.228Z,99.90
2023-04-01T06:14:13.866Z,99.90
2023-04-01T06:17:18.740Z,99.90
2023-04-01T06:20:18.972Z,99.90
2023-04-01T06:26:27.986Z,99.90
2023-04-01T06:29:47.081Z,99.90
2023-04-01T06:33:04.884Z,99.90
2023-04-01T06:36:08.903Z,99.90
2023-04-01T06:39:18.953Z,99.90
2023-04-01T06:42:27.246Z,99.90
2023-04-01T06:45:30.997Z,99.90
2023-04-01T06:48:44.034Z,99.90
2023-04-01T06:51:41.260Z,99.90
2023-04-01T06:54:36.691Z,99.90
2023-04-01T06:57:32.117Z,99.90
2023-04-01T07:00:27.057Z,99.90
2023-04-01T07:03:23.889Z,99.90
2023-04-01T07:23:25.586Z,99.90
2023-04-01T07:26:19.921Z,99.90
2023-04-01T07:29:12.939Z,99.90
2023-04-01T07:32:23.058Z,99.90
2023-04-01T07:35:31.168Z,99.90
2023-04-01T07:38:29.299Z,99.90
2023-04-01T07:41:26.572Z,99.90
2023-04-01T07:44:24.568Z,99.90
2023-04-01T07:47:34.306Z,99.90
2023-04-01T07:50:28.794Z,99.90
2023-04-01T07:53:28.153Z,99.90
2023-04-01T07:56:25.732Z,99.90
2023-04-01T07:59:22.821Z,99.90
2023-04-01T08:02:22.781Z,99.90
2023-04-01T08:05:21.366Z,99.90
2023-04-01T08:08:20.343Z,99.90
2023-04-01T08:11:19.062Z,99.90
2023-04-01T08:14:20.275Z,99.90
2023-04-01T08:17:18.090Z,99.90
2023-04-01T08:20:18.189Z,99.90
2023-04-01T08:23:13.152Z,99.90
2023-04-01T08:26:06.403Z,99.90
2023-04-01T08:28:59.578Z,99.90
2023-04-01T08:31:53.972Z,99.90
2023-04-01T08:34:49.447Z,99.90
2023-04-01T08:37:42.199Z,99.90
2023-04-01T08:40:59.815Z,99.90
2023-04-01T08:44:26.645Z,99.90
2023-04-01T08:47:39.752Z,99.90
2023-04-01T08:51:15.807Z,99.90
2023-04-01T08:54:32.850Z,99.90
2023-04-01T08:57:31.316Z,99.90
2023-04-01T09:00:32.549Z,99.90
2023-04-01T09:03:38.862Z,99.90
2023-04-01T09:06:37.797Z,99.90
2023-04-01T09:09:57.313Z,99.90
2023-04-01T09:12:58.491Z,99.90
2023-04-01T09:16:03.136Z,99.90
2023-04-01T09:19:13.340Z,99.90
2023-04-01T09:22:30.422Z,99.90
2023-04-01T09:25:40.801Z,99.90
2023-04-01T09:28:35.504Z,99.90
2023-04-01T09:31:35.014Z,99.90
2023-04-01T09:37:40.834Z,99.90
2023-04-01T09:40:43.595Z,99.90
2023-04-01T09:44:01.052Z,99.90
2023-04-01T09:47:00.322Z,99.90
2023-04-01T09:50:08.604Z,99.90
2023-04-01T09:53:09.341Z,99.90
2023-04-01T09:59:37.765Z,99.90
2023-04-01T10:03:12.529Z,99.90
2023-04-01T10:16:12.435Z,99.90
2023-04-01T10:19:32.362Z,99.90
2023-04-01T10:22:43.022Z,99.90
2023-04-01T10:25:55.701Z,99.90
2023-04-01T10:32:15.319Z,99.90
2023-04-01T10:35:41.044Z,99.90
2023-04-01T10:48:23.037Z,99.90
2023-04-01T10:51:27.670Z,99.90
2023-04-01T10:54:46.546Z,99.90
2023-04-01T10:58:13.124Z,99.90
2023-04-01T11:01:24.788Z,99.90
2023-04-01T11:05:07.994Z,99.90
2023-04-01T11:08:39.733Z,99.90
2023-04-01T11:12:07.080Z,99.90
2023-04-01T11:15:28.987Z,99.90
2023-04-01T11:18:47.073Z,99.90
2023-04-01T11:28:07.638Z,77.60
2023-04-01T11:31:12.153Z,73.00
2023-04-01T11:34:12.122Z,76.10
2023-04-01T11:37:12.136Z,76.90
2023-04-01T11:40:16.316Z,76.60
2023-04-01T11:43:26.335Z,72.50
2023-04-01T11:46:30.553Z,72.90
2023-04-01T11:49:31.986Z,74.40
2023-04-01T11:55:27.402Z,69.00
2023-04-01T11:58:30.820Z,68.30
2023-04-01T12:01:30.793Z,67.90
2023-04-01T12:04:40.916Z,69.20
2023-04-01T12:07:55.673Z,69.80
2023-04-01T12:10:51.370Z,69.90
2023-04-01T12:13:47.143Z,68.50
2023-04-01T12:16:53.884Z,68.60
2023-04-01T12:19:50.069Z,67.70
2023-04-01T12:22:51.831Z,66.80
2023-04-01T12:29:08.586Z,67.30
2023-04-01T12:32:06.639Z,67.70
2023-04-01T12:35:15.255Z,67.40
2023-04-01T12:38:19.782Z,68.40
2023-04-01T12:41:19.817Z,66.00
2023-04-01T12:44:37.104Z,64.50
2023-04-01T12:47:46.338Z,63.60
2023-04-01T12:50:54.069Z,64.90
2023-04-01T12:54:30.586Z,65.50
2023-04-01T12:57:34.466Z,63.40
2023-04-01T13:00:53.237Z,64.70
2023-04-01T13:04:05.377Z,64.20
2023-04-01T13:07:09.975Z,64.90
2023-04-01T13:10:08.962Z,65.60
2023-04-01T13:13:27.090Z,64.60
2023-04-01T13:16:18.548Z,65.00
2023-04-01T13:19:11.170Z,65.00
2023-04-01T13:22:05.766Z,63.30
2023-04-01T13:25:01.435Z,63.90
2023-04-01T13:27:58.073Z,64.40
2023-04-01T13:30:51.845Z,63.40
2023-04-01T13:33:47.667Z,64.20
2023-04-01T13:36:45.550Z,65.10
2023-04-01T13:40:01.750Z,66.10
2023-04-01T13:42:59.137Z,66.30
2023-04-01T13:46:24.092Z,63.20
2023-04-01T13:49:42.514Z,63.50
2023-04-01T13:52:54.886Z,65.10
2023-04-01T13:56:04.697Z,66.10
2023-04-01T13:59:27.426Z,64.10
2023-04-01T14:02:47.139Z,66.40
2023-04-01T14:05:49.342Z,65.30
2023-04-01T14:08:53.755Z,64.80
2023-04-01T14:11:50.112Z,63.50
2023-04-01T14:15:01.831Z,63.60
2023-04-01T14:18:01.052Z,65.00
2023-04-01T14:20:55.668Z,64.30
2023-04-01T14:24:13.564Z,66.20
2023-04-01T14:27:20.500Z,65.80
2023-04-01T14:30:38.309Z,64.60
2023-04-01T14:33:40.067Z,65.30
2023-04-01T14:37:00.153Z,63.80
2023-04-01T14:40:02.129Z,63.50
2023-04-01T14:43:01.388Z,63.30
2023-04-01T14:46:16.939Z,64.90
2023-04-01T14:49:16.275Z,63.60
2023-04-01T14:52:16.067Z,63.90
2023-04-01T14:55:21.756Z,63.50
2023-04-01T14:58:13.501Z,65.10
2023-04-01T15:04:16.129Z,64.00
2023-04-01T15:07:27.162Z,63.30
2023-04-01T15:10:44.411Z,64.20
2023-04-01T15:14:17.770Z,64.10
2023-04-01T15:17:24.590Z,64.30
2023-04-01T15:20:32.237Z,65.00
2023-04-01T15:23:32.950Z,65.10
2023-04-01T15:26:39.262Z,64.50
2023-04-01T15:29:45.575Z,65.30
2023-04-01T15:32:47.310Z,65.60
2023-04-01T15:35:46.668Z,65.60
2023-04-01T15:38:40.630Z,63.60
2023-04-01T15:41:41.369Z,64.50
2023-04-01T15:44:52.490Z,64.20
2023-04-01T15:47:44.938Z,65.80
2023-04-01T15:50:55.539Z,66.20
2023-04-01T15:54:02.380Z,66.50
2023-04-01T15:57:02.969Z,68.20
2023-04-01T16:00:20.705Z,67.40
2023-04-01T16:03:35.455Z,63.90
2023-04-01T16:06:45.834Z,64.90
2023-04-01T16:09:49.571Z,64.70
2023-04-01T16:12:51.858Z,65.20
2023-04-01T16:15:46.571Z,65.70
2023-04-01T16:18:52.794Z,67.70
2023-04-01T16:21:48.277Z,68.30
2023-04-01T16:24:41.107Z,68.90
2023-04-01T16:27:37.339Z,69.10
2023-04-01T16:30:35.489Z,69.40
2023-04-01T16:33:29.999Z,69.50
2023-04-01T16:36:29.495Z,70.80
2023-04-01T16:39:30.794Z,72.00
2023-04-01T16:42:30.936Z,76.00
2023-04-01T16:45:28.560Z,78.40
2023-04-01T16:48:21.184Z,80.30
2023-04-01T16:51:16.922Z,80.00
2023-04-01T16:54:14.688Z,89.80
2023-04-01T16:57:19.747Z,82.30
2023-04-01T17:03:18.619Z,83.40
2023-04-01T17:06:21.780Z,83.50
2023-04-01T17:09:36.274Z,84.10
2023-04-01T17:12:30.256Z,83.60
2023-04-01T17:15:27.549Z,83.80
2023-04-01T17:18:25.938Z,83.90
2023-04-01T17:21:20.482Z,84.20
2023-04-01T17:24:24.678Z,83.90
2023-04-01T17:27:28.517Z,85.00
2023-04-01T17:30:32.291Z,85.40
2023-04-01T17:33:43.669Z,86.30
2023-04-01T17:36:46.553Z,86.80
2023-04-01T17:39:48.840Z,87.90
2023-04-01T17:42:44.677Z,89.00
2023-04-01T17:45:38.963Z,89.70
2023-04-01T17:48:40.722Z,90.20
2023-04-01T17:51:35.920Z,90.60
2023-04-01T17:54:35.883Z,90.70
2023-04-01T17:57:46.426Z,90.60
2023-04-01T18:00:52.860Z,90.70
2023-04-01T18:04:07.246Z,90.60
2023-04-01T18:07:31.458Z,90.90
2023-04-01T18:10:28.899Z,91.10
2023-04-01T18:13:37.722Z,90.40
2023-04-01T18:16:40.459Z,90.90
2023-04-01T18:19:37.744Z,90.80
2023-04-01T18:22:31.685Z,91.00
2023-04-01T18:25:27.560Z,91.10
2023-04-01T18:28:29.531Z,91.20
2023-04-01T18:31:21.145Z,91.20
2023-04-01T18:34:15.016Z,91.30
2023-04-01T18:37:15.101Z,92.20
2023-04-01T18:40:17.587Z,93.30
2023-04-01T18:44:03.395Z,92.40
2023-04-01T18:47:02.748Z,92.30
2023-04-01T18:49:57.743Z,92.40
2023-04-01T18:52:46.800Z,92.70
2023-04-01T18:55:41.007Z,92.90
2023-04-01T18:58:37.099Z,93.00
2023-04-01T19:01:30.357Z,92.90
2023-04-01T19:04:25.941Z,93.10
2023-04-01T19:07:47.929Z,93.10
2023-04-01T19:10:48.016Z,93.10
2023-04-01T19:13:48.186Z,93.20
2023-04-01T19:16:51.484Z,93.40
2023-04-01T19:19:53.528Z,93.50
2023-04-01T19:22:55.939Z,93.50
2023-04-01T19:25:48.338Z,93.60
2023-04-01T19:28:49.746Z,93.70
2023-04-01T19:31:50.357Z,94.00
2023-04-01T19:34:51.999Z,94.30
2023-04-01T19:37:42.497Z,94.70
2023-04-01T19:40:42.729Z,95.00
2023-04-01T19:43:49.104Z,95.40
2023-04-01T19:46:43.056Z,95.70
2023-04-01T19:49:44.563Z,95.80
2023-04-01T19:52:37.875Z,95.90
2023-04-01T19:55:37.340Z,96.10
2023-04-01T19:58:33.460Z,96.30
2023-04-01T20:01:41.678Z,96.70
2023-04-01T20:04:39.595Z,98.20
2023-04-01T20:07:32.917Z,97.30
2023-04-01T20:10:27.572Z,99.40
2023-04-01T20:13:27.754Z,99.90
2023-04-01T20:16:17.581Z,97.70
2023-04-01T20:19:06.462Z,97.20
2023-04-01T20:22:00.406Z,97.10
2023-04-01T20:49:00.663Z,97.00
2023-04-01T20:51:55.604Z,97.30
2023-04-01T20:54:57.879Z,97.40
2023-04-01T20:57:53.315Z,97.80
2023-04-01T21:00:54.711Z,98.00
2023-04-01T21:03:49.446Z,97.80
2023-04-01T21:06:50.794Z,97.90
2023-04-01T21:09:50.872Z,98.00
2023-04-01T21:12:50.078Z,97.80
2023-04-01T21:16:04.693Z,97.60
2023-04-01T21:19:19.961Z,97.60
2023-04-01T21:22:23.460Z,97.60
2023-04-01T21:25:30.337Z,97.30
2023-04-01T21:28:36.564Z,97.20
2023-04-01T21:31:39.465Z,96.80
2023-04-01T21:34:52.686Z,96.80
2023-04-01T21:37:56.014Z,96.50
2023-04-01T21:41:04.729Z,96.80
2023-04-01T21:44:19.825Z,96.90
2023-04-01T21:47:49.505Z,97.10
2023-04-01T21:51:18.832Z,96.90
2023-04-01T21:54:36.582Z,96.80
2023-04-01T21:57:57.768Z,96.90
2023-04-01T22:00:53.353Z,97.10
2023-04-01T22:04:12.917Z,97.10
2023-04-01T22:07:07.452Z,96.90
2023-04-01T22:10:04.707Z,96.90
2023-04-01T22:13:00.473Z,96.40
2023-04-01T22:15:59.573Z,96.30
2023-04-01T22:19:00.123Z,96.40
2023-04-01T22:22:02.554Z,96.50
2023-04-01T22:25:02.667Z,96.20
2023-04-01T22:27:57.827Z,96.50
2023-04-01T22:30:51.429Z,96.40
2023-04-01T22:33:48.816Z,96.50
2023-04-01T22:36:47.728Z,96.60
2023-04-01T22:40:01.099Z,96.80
2023-04-01T22:42:55.036Z,96.70
2023-04-01T22:46:28.671Z,97.00
2023-04-01T22:49:23.641Z,97.10
2023-04-01T22:52:23.149Z,96.90
2023-04-01T22:55:16.399Z,96.70
2023-04-01T23:01:01.621Z,96.20
2023-04-01T23:03:53.474Z,96.70
2023-04-01T23:06:46.214Z,96.50
2023-04-01T23:09:37.829Z,96.20
2023-04-01T23:12:27.940Z,96.30
2023-04-01T23:15:18.219Z,96.30
2023-04-01T23:18:23.816Z,96.40
2023-04-01T23:21:17.931Z,96.30
2023-04-01T23:24:19.047Z,96.10
2023-04-01T23:27:19.113Z,97.10
2023-04-01T23:30:46.792Z,98.20
2023-04-01T23:33:35.274Z,98.40
2023-04-01T23:36:24.209Z,98.40
2023-04-01T23:39:23.426Z,98.50
2023-04-01T23:42:20.709Z,98.40
2023-04-01T23:45:18.191Z,98.20
2023-04-01T23:48:07.649Z,98.10
2023-04-01T23:50:57.110Z,98.10
2023-04-01T23:53:47.629Z,98.20
2023-04-01T23:56:43.182Z,98.20
2023-04-01T23:59:34.940Z,97.70
